Caribbean Ferry — WDD3415 — position and weather

sailwx.info

Track history (hours):
 
Tides and Currents Weather Stations Pressure Air Temp Water Temp Dewpoint Dewpoint Depression Visibility Wind Speed Wind Dir Waves Ship Positions

Caribbean Ferry

Owner: Cross Sound Ferry Services,Inc., New London, CT. More information available from US FCC via Universal Licensing System and Coast Guard Vessel Documentation Center.

Last reported at 2015-May-28 19:23 UTC. Time now 2015-May-29 04:20 UTC.
Position N 41°21' W 072°06'.

Length 36 m.

Type: Passenger vessel. MMSI: 367130960.

Date/timePositionNaut miles runAvg speedWind from/ knotsBaromVisibWave heightAir tempDewpointWater temp
2015-May-28 19:23N 41°21' W 072°06'8 9.3
2015-May-28 18:34N 41°14' W 072°09'6 6.4
2015-May-28 17:34N 41°09' W 072°14'8 8.3
2015-May-28 16:33N 41°16' W 072°07'6 5.9
2015-May-28 15:33N 41°21' W 072°06'8 8.3
2015-May-28 14:34N 41°14' W 072°09'6 5.9
2015-May-28 13:34N 41°09' W 072°14'8 8.3
2015-May-28 12:33N 41°16' W 072°08'6 5.8
2015-May-28 11:33N 41°21' W 072°06'0 0.0
2015-May-27 19:19N 41°21' W 072°06'7 9.4
2015-May-27 18:33N 41°15' W 072°08'7 7.0
2015-May-27 17:33N 41°09' W 072°14'8 8.4
2015-May-27 16:33N 41°16' W 072°08'6 5.7
2015-May-27 15:33N 41°21' W 072°06'8 8.0
2015-May-27 14:33N 41°14' W 072°09'6 5.9
2015-May-27 13:34N 41°09' W 072°14'1110.8
2015-May-27 12:34N 41°18' W 072°06'3 0.3
2015-May-26 23:26N 41°21' W 072°06'9 9.8
2015-May-26 22:33N 41°13' W 072°10'5 5.4
2015-May-26 21:33N 41°09' W 072°14'9 8.8
2015-May-26 20:34N 41°16' W 072°07'  
2015-May-20 23:15N 41°21' W 072°05'811.2
2015-May-20 22:33N 41°14' W 072°09'6 5.9
2015-May-20 21:33N 41°09' W 072°14'8 8.3
2015-May-20 20:33N 41°16' W 072°08'6 5.8
2015-May-20 19:33N 41°21' W 072°06'8 7.8
2015-May-20 18:33N 41°14' W 072°09'6 6.2
2015-May-20 17:33N 41°09' W 072°14'9 8.9
2015-May-20 16:33N 41°16' W 072°07'5 5.2
2015-May-20 15:33N 41°21' W 072°06'8 8.1
2015-May-20 14:33N 41°14' W 072°10'6 5.8
2015-May-20 13:33N 41°09' W 072°14'8 8.2
2015-May-20 12:33N 41°16' W 072°08'6 5.9
2015-May-20 11:33N 41°21' W 072°06'0 0.0
2015-May-19 23:27N 41°21' W 072°06'8 9.1
2015-May-19 22:34N 41°14' W 072°09'6 6.0
2015-May-19 21:34N 41°09' W 072°14'8 8.0
2015-May-19 20:33N 41°15' W 072°07'6 6.2
2015-May-19 19:34N 41°21' W 072°06'8 8.4
2015-May-19 18:33N 41°13' W 072°09'6 5.6
2015-May-19 17:33N 41°09' W 072°14'8 8.4
2015-May-19 16:33N 41°16' W 072°07'6 5.8
2015-May-19 15:33N 41°21' W 072°06'8 8.2
2015-May-19 14:34N 41°14' W 072°10'6 5.8
2015-May-19 13:33N 41°09' W 072°14'9 9.0
2015-May-19 12:33N 41°16' W 072°07'5 5.2
2015-May-19 11:33N 41°21' W 072°06'0 0.0
2015-May-18 23:24N 41°21' W 072°06'8 9.6
2015-May-18 22:33N 41°14' W 072°09'6 6.0
2015-May-18 21:33N 41°09' W 072°14'8 7.9
2015-May-18 20:33N 41°15' W 072°08'  
Track history (hours):
 
Tides and Currents Weather Stations Pressure Air Temp Water Temp Dewpoint Dewpoint Depression Visibility Wind Speed Wind Dir Waves Ship Positions

Caribbean Ferry

Owner: Cross Sound Ferry Services,Inc., New London, CT. More information available from US FCC via Universal Licensing System and Coast Guard Vessel Documentation Center.

Last reported at 2015-May-28 19:23 UTC. Time now 2015-May-29 04:20 UTC.
Position N 41°21' W 072°06'.

Length 36 m.

Type: Passenger vessel. MMSI: 367130960.

Date/timePositionNaut miles runAvg speedWind from/ knotsBaromVisibWave heightAir tempDewpointWater temp
2015-May-28 19:23N 41°21' W 072°06'8 9.3
2015-May-28 18:34N 41°14' W 072°09'6 6.4
2015-May-28 17:34N 41°09' W 072°14'8 8.3
2015-May-28 16:33N 41°16' W 072°07'6 5.9
2015-May-28 15:33N 41°21' W 072°06'8 8.3
2015-May-28 14:34N 41°14' W 072°09'6 5.9
2015-May-28 13:34N 41°09' W 072°14'8 8.3
2015-May-28 12:33N 41°16' W 072°08'6 5.8
2015-May-28 11:33N 41°21' W 072°06'0 0.0
2015-May-27 19:19N 41°21' W 072°06'7 9.4
2015-May-27 18:33N 41°15' W 072°08'7 7.0
2015-May-27 17:33N 41°09' W 072°14'8 8.4
2015-May-27 16:33N 41°16' W 072°08'6 5.7
2015-May-27 15:33N 41°21' W 072°06'8 8.0
2015-May-27 14:33N 41°14' W 072°09'6 5.9
2015-May-27 13:34N 41°09' W 072°14'1110.8
2015-May-27 12:34N 41°18' W 072°06'3 0.3
2015-May-26 23:26N 41°21' W 072°06'9 9.8
2015-May-26 22:33N 41°13' W 072°10'5 5.4
2015-May-26 21:33N 41°09' W 072°14'9 8.8
2015-May-26 20:34N 41°16' W 072°07'  
2015-May-20 23:15N 41°21' W 072°05'811.2
2015-May-20 22:33N 41°14' W 072°09'6 5.9
2015-May-20 21:33N 41°09' W 072°14'8 8.3
2015-May-20 20:33N 41°16' W 072°08'6 5.8
2015-May-20 19:33N 41°21' W 072°06'8 7.8
2015-May-20 18:33N 41°14' W 072°09'6 6.2
2015-May-20 17:33N 41°09' W 072°14'9 8.9
2015-May-20 16:33N 41°16' W 072°07'5 5.2
2015-May-20 15:33N 41°21' W 072°06'8 8.1
2015-May-20 14:33N 41°14' W 072°10'6 5.8
2015-May-20 13:33N 41°09' W 072°14'8 8.2
2015-May-20 12:33N 41°16' W 072°08'6 5.9
2015-May-20 11:33N 41°21' W 072°06'0 0.0
2015-May-19 23:27N 41°21' W 072°06'8 9.1
2015-May-19 22:34N 41°14' W 072°09'6 6.0
2015-May-19 21:34N 41°09' W 072°14'8 8.0
2015-May-19 20:33N 41°15' W 072°07'6 6.2
2015-May-19 19:34N 41°21' W 072°06'8 8.4
2015-May-19 18:33N 41°13' W 072°09'6 5.6
2015-May-19 17:33N 41°09' W 072°14'8 8.4
2015-May-19 16:33N 41°16' W 072°07'6 5.8
2015-May-19 15:33N 41°21' W 072°06'8 8.2
2015-May-19 14:34N 41°14' W 072°10'6 5.8
2015-May-19 13:33N 41°09' W 072°14'9 9.0
2015-May-19 12:33N 41°16' W 072°07'5 5.2
2015-May-19 11:33N 41°21' W 072°06'0 0.0
2015-May-18 23:24N 41°21' W 072°06'8 9.6
2015-May-18 22:33N 41°14' W 072°09'6 6.0
2015-May-18 21:33N 41°09' W 072°14'8 7.9
2015-May-18 20:33N 41°15' W 072°08'  

Dump ship's entire track history